createdAt,value
2022-08-01T00:02:07.037Z,88.00
2022-08-01T00:04:55.421Z,85.41
2022-08-01T00:07:41.621Z,83.52
2022-08-01T00:10:28.480Z,88.98
2022-08-01T00:13:14.685Z,89.66
2022-08-01T00:16:00.995Z,83.03
2022-08-01T00:18:47.483Z,82.01
2022-08-01T00:21:33.895Z,81.82
2022-08-01T00:24:20.172Z,88.69
2022-08-01T00:27:06.518Z,87.49
2022-08-01T00:30:09.913Z,88.58
2022-08-01T00:32:59.133Z,84.13
2022-08-01T00:35:45.398Z,85.70
2022-08-01T00:38:32.322Z,82.54
2022-08-01T00:41:18.873Z,87.30
2022-08-01T00:44:06.520Z,85.71
2022-08-01T00:46:52.276Z,83.25
2022-08-01T00:49:38.691Z,87.60
2022-08-01T00:52:24.998Z,92.88
2022-08-01T00:55:15.280Z,91.55
2022-08-01T00:58:04.709Z,86.59
2022-08-01T01:00:54.594Z,89.59
2022-08-01T01:03:57.968Z,90.91
2022-08-01T01:07:05.819Z,89.32
2022-08-01T01:09:56.808Z,87.16
2022-08-01T01:12:45.845Z,83.14
2022-08-01T01:15:46.683Z,85.70
2022-08-01T01:18:45.528Z,85.12
2022-08-01T01:21:48.266Z,85.54
2022-08-01T01:24:46.517Z,83.44
2022-08-01T01:27:54.761Z,85.13
2022-08-01T01:30:42.686Z,87.43
2022-08-01T01:33:32.818Z,88.48
2022-08-01T01:36:19.437Z,87.23
2022-08-01T01:39:05.766Z,86.23
2022-08-01T01:41:53.122Z,83.51
2022-08-01T01:44:39.756Z,83.24
2022-08-01T01:47:26.776Z,83.11
2022-08-01T01:50:14.182Z,82.76
2022-08-01T01:53:01.425Z,86.47
2022-08-01T01:55:51.000Z,85.31
2022-08-01T01:58:39.912Z,87.45
2022-08-01T02:02:03.537Z,84.98
2022-08-01T02:04:37.403Z,83.56
2022-08-01T02:07:26.933Z,84.67
2022-08-01T02:10:14.188Z,85.48
2022-08-01T02:13:04.107Z,83.71
2022-08-01T02:15:59.737Z,90.68
2022-08-01T02:18:46.897Z,92.72
2022-08-01T02:21:40.690Z,92.80
2022-08-01T02:24:57.376Z,87.92
2022-08-01T02:27:56.077Z,85.17
2022-08-01T02:30:47.662Z,85.64
2022-08-01T02:33:44.223Z,87.25
2022-08-01T02:36:34.961Z,82.89
2022-08-01T02:39:22.619Z,82.78
2022-08-01T02:42:09.871Z,81.25
2022-08-01T02:44:57.375Z,79.77
2022-08-01T02:47:45.187Z,79.41
2022-08-01T02:50:32.701Z,82.51
2022-08-01T02:53:20.705Z,83.97
2022-08-01T02:56:07.307Z,87.68
2022-08-01T02:58:53.832Z,92.66
2022-08-01T03:01:44.515Z,89.88
2022-08-01T03:04:31.106Z,92.50
2022-08-01T03:07:18.441Z,94.51
2022-08-01T03:10:06.505Z,99.63
2022-08-01T03:12:53.321Z,96.64
2022-08-01T03:15:41.086Z,94.83
2022-08-01T03:18:28.393Z,92.75
2022-08-01T03:21:15.370Z,90.55
2022-08-01T03:24:02.661Z,91.40
2022-08-01T03:26:49.515Z,89.37
2022-08-01T03:29:37.195Z,88.00
2022-08-01T03:32:24.195Z,92.06
2022-08-01T03:35:10.544Z,89.69
2022-08-01T03:38:15.779Z,90.15
2022-08-01T03:41:22.299Z,94.51
2022-08-01T03:44:15.617Z,91.11
2022-08-01T03:47:06.819Z,93.26
2022-08-01T03:49:53.677Z,91.52
2022-08-01T03:52:40.867Z,90.38
2022-08-01T03:55:27.656Z,91.69
2022-08-01T03:58:14.213Z,89.99
2022-08-01T04:01:00.356Z,94.91
2022-08-01T04:03:46.926Z,94.13
2022-08-01T04:06:32.899Z,91.21
2022-08-01T04:09:19.256Z,92.91
2022-08-01T04:12:10.057Z,95.24
2022-08-01T04:14:59.688Z,95.21
2022-08-01T04:17:45.541Z,92.94
2022-08-01T04:20:31.806Z,92.42
2022-08-01T04:23:21.280Z,90.18
2022-08-01T04:26:08.224Z,92.54
2022-08-01T04:28:56.085Z,95.10
2022-08-01T04:31:45.499Z,94.73
2022-08-01T04:34:32.434Z,94.17
2022-08-01T04:37:19.590Z,93.04
2022-08-01T04:40:07.437Z,91.88
2022-08-01T04:42:54.065Z,91.17
2022-08-01T04:45:40.518Z,91.50
2022-08-01T04:48:27.295Z,92.90
2022-08-01T04:51:16.397Z,94.32
2022-08-01T04:54:02.900Z,94.01
2022-08-01T04:56:51.467Z,95.02
2022-08-01T04:59:42.564Z,92.79
2022-08-01T05:02:30.064Z,93.58
2022-08-01T05:05:16.409Z,92.81
2022-08-01T05:08:02.861Z,90.12
2022-08-01T05:10:49.158Z,89.77
2022-08-01T05:13:35.769Z,89.14
2022-08-01T05:16:22.133Z,88.91
2022-08-01T05:19:09.199Z,87.61
2022-08-01T05:22:00.289Z,85.18
2022-08-01T05:24:48.139Z,84.37
2022-08-01T05:27:41.828Z,84.37
2022-08-01T05:30:28.724Z,82.31
2022-08-01T05:33:15.180Z,81.76
2022-08-01T05:36:01.586Z,83.43
2022-08-01T05:38:48.028Z,80.58
2022-08-01T05:41:34.212Z,80.26
2022-08-01T05:44:20.561Z,81.72
2022-08-01T05:47:07.064Z,80.08
2022-08-01T05:49:53.354Z,79.09
2022-08-01T05:52:39.618Z,77.25
2022-08-01T05:55:25.977Z,75.41
2022-08-01T05:58:12.589Z,76.90
2022-08-01T06:00:59.522Z,76.16
2022-08-01T06:03:46.424Z,72.94
2022-08-01T06:06:32.593Z,73.17
2022-08-01T06:09:18.876Z,71.81
2022-08-01T06:12:05.732Z,72.73
2022-08-01T06:14:52.109Z,71.26
2022-08-01T06:17:37.928Z,71.01
2022-08-01T06:20:24.513Z,72.69
2022-08-01T06:23:22.481Z,71.72
2022-08-01T06:26:20.822Z,69.74
2022-08-01T06:29:07.010Z,70.96
2022-08-01T06:31:56.597Z,70.73
2022-08-01T06:34:42.581Z,70.61
2022-08-01T06:37:32.648Z,69.97
2022-08-01T06:40:19.011Z,72.34
2022-08-01T06:43:05.403Z,71.21
2022-08-01T06:45:51.608Z,70.99
2022-08-01T06:48:40.360Z,67.30
2022-08-01T06:51:26.541Z,69.16
2022-08-01T06:54:12.897Z,67.25
2022-08-01T06:56:59.051Z,65.77
2022-08-01T06:59:52.004Z,66.08
2022-08-01T07:02:42.067Z,64.34
2022-08-01T07:05:28.696Z,62.64
2022-08-01T07:08:14.970Z,62.73
2022-08-01T07:11:01.275Z,62.06
2022-08-01T07:13:47.754Z,60.46
2022-08-01T07:16:34.296Z,58.97
2022-08-01T07:19:20.721Z,58.92
2022-08-01T07:22:07.431Z,58.15
2022-08-01T07:24:54.293Z,56.84
2022-08-01T07:27:41.357Z,56.41
2022-08-01T07:30:27.807Z,54.01
2022-08-01T07:33:14.005Z,53.97
2022-08-01T07:36:00.348Z,54.80
2022-08-01T07:38:47.039Z,53.98
2022-08-01T07:42:04.659Z,52.23
2022-08-01T07:44:39.500Z,54.15
2022-08-01T07:47:26.600Z,51.56
2022-08-01T07:50:13.835Z,51.71
2022-08-01T07:53:00.083Z,51.33
2022-08-01T07:55:46.742Z,51.28
2022-08-01T07:58:34.369Z,51.54
2022-08-01T08:01:21.027Z,51.53
2022-08-01T08:04:07.418Z,49.54
2022-08-01T08:06:54.518Z,49.16
2022-08-01T08:09:41.023Z,49.59
2022-08-01T08:12:28.958Z,50.78
2022-08-01T08:15:16.683Z,50.98
2022-08-01T08:18:04.570Z,50.32
2022-08-01T08:20:51.012Z,52.32
2022-08-01T08:23:56.106Z,51.05
2022-08-01T08:26:42.556Z,53.21
2022-08-01T08:29:33.449Z,51.92
2022-08-01T08:32:20.163Z,53.90
2022-08-01T08:35:07.157Z,53.99
2022-08-01T08:37:56.080Z,52.90
2022-08-01T08:40:45.547Z,52.24
2022-08-01T08:43:31.887Z,52.41
2022-08-01T08:46:18.936Z,52.55
2022-08-01T08:49:27.181Z,52.59
2022-08-01T08:52:22.327Z,51.80
2022-08-01T08:55:09.669Z,51.95
2022-08-01T08:57:56.258Z,51.93
2022-08-01T09:00:43.166Z,50.79
2022-08-01T09:03:34.269Z,51.37
2022-08-01T09:06:20.858Z,48.91
2022-08-01T09:09:07.762Z,49.51
2022-08-01T09:11:57.555Z,48.52
2022-08-01T09:14:48.409Z,49.50
2022-08-01T09:17:42.687Z,49.40
2022-08-01T09:20:31.082Z,49.65
2022-08-01T09:23:33.995Z,47.68
2022-08-01T09:26:31.793Z,47.84
2022-08-01T09:29:37.646Z,47.04
2022-08-01T09:32:25.960Z,45.91
2022-08-01T09:35:29.974Z,48.77
2022-08-01T09:38:19.827Z,47.58
2022-08-01T09:41:08.391Z,47.82
2022-08-01T09:43:54.491Z,46.43
2022-08-01T09:47:07.759Z,46.69
2022-08-01T09:49:57.524Z,45.67
2022-08-01T09:52:54.701Z,44.87
2022-08-01T09:55:41.477Z,43.58
2022-08-01T09:58:27.604Z,44.16
2022-08-01T10:01:13.674Z,44.42
2022-08-01T10:04:09.648Z,43.21
2022-08-01T10:07:06.815Z,43.28
2022-08-01T10:09:53.588Z,43.57
2022-08-01T10:12:45.163Z,41.62
2022-08-01T10:15:36.879Z,41.99
2022-08-01T10:18:26.294Z,40.78
2022-08-01T10:21:12.791Z,43.54
2022-08-01T10:24:02.830Z,42.79
2022-08-01T10:26:52.914Z,42.39
2022-08-01T10:29:59.154Z,41.03
2022-08-01T10:32:55.035Z,42.28
2022-08-01T10:35:47.432Z,40.92
2022-08-01T10:38:35.883Z,40.04
2022-08-01T10:41:23.346Z,40.13
2022-08-01T10:44:10.563Z,39.91
2022-08-01T10:47:11.373Z,39.15
2022-08-01T10:50:40.698Z,39.73
2022-08-01T10:53:31.576Z,41.57
2022-08-01T10:56:40.876Z,42.53
2022-08-01T10:59:49.724Z,39.62
2022-08-01T11:02:41.721Z,39.44
2022-08-01T11:05:34.059Z,39.67
2022-08-01T11:08:24.214Z,40.57
2022-08-01T11:11:10.718Z,38.54
2022-08-01T11:14:09.825Z,37.99
2022-08-01T11:16:57.512Z,38.56
2022-08-01T11:20:07.777Z,38.17
2022-08-01T11:23:05.047Z,37.20
2022-08-01T11:26:06.197Z,36.82
2022-08-01T11:29:20.581Z,36.60
2022-08-01T11:33:11.203Z,35.21
2022-08-01T11:36:12.234Z,35.57
2022-08-01T11:38:58.534Z,35.11
2022-08-01T11:41:46.748Z,36.01
2022-08-01T11:44:52.172Z,36.99
2022-08-01T11:47:49.874Z,37.63
2022-08-01T11:50:37.957Z,36.04
2022-08-01T11:53:25.058Z,35.25
2022-08-01T11:56:13.337Z,37.09
2022-08-01T11:59:03.850Z,36.65
2022-08-01T12:01:50.506Z,35.25
2022-08-01T12:04:51.500Z,35.31
2022-08-01T12:07:37.525Z,36.23
2022-08-01T12:10:26.746Z,35.50
2022-08-01T12:13:12.828Z,33.70
2022-08-01T12:16:08.216Z,33.04
2022-08-01T12:18:54.512Z,33.90
2022-08-01T12:21:40.907Z,33.53
2022-08-01T12:24:27.431Z,32.68
2022-08-01T12:27:25.332Z,34.70
2022-08-01T12:30:25.997Z,34.06
2022-08-01T12:33:13.193Z,35.90
2022-08-01T12:35:59.286Z,36.75
2022-08-01T12:38:45.691Z,34.96
2022-08-01T12:41:33.234Z,36.00
2022-08-01T12:44:20.054Z,33.77
2022-08-01T12:47:09.567Z,33.13
2022-08-01T12:49:56.002Z,34.31
2022-08-01T12:52:42.569Z,33.88
2022-08-01T12:55:34.097Z,33.21
2022-08-01T12:58:21.171Z,33.50
2022-08-01T13:01:10.061Z,34.76
2022-08-01T13:04:05.253Z,34.36
2022-08-01T13:06:54.593Z,32.40
2022-08-01T13:09:50.925Z,31.91
2022-08-01T13:12:37.315Z,32.77
2022-08-01T13:15:35.943Z,31.12
2022-08-01T13:18:33.423Z,31.74
2022-08-01T13:21:53.344Z,32.60
2022-08-01T13:24:41.665Z,32.65
2022-08-01T13:27:30.968Z,31.89
2022-08-01T13:30:19.270Z,32.64
2022-08-01T13:33:05.671Z,31.76
2022-08-01T13:35:54.025Z,33.13
2022-08-01T13:38:59.819Z,32.54
2022-08-01T13:41:46.967Z,33.30
2022-08-01T13:44:33.437Z,34.41
2022-08-01T13:47:31.646Z,33.56
2022-08-01T13:50:18.789Z,34.29
2022-08-01T13:53:05.137Z,34.48
2022-08-01T13:55:50.976Z,34.51
2022-08-01T13:58:37.579Z,34.75
2022-08-01T14:01:24.693Z,35.13
2022-08-01T14:04:11.129Z,35.83
2022-08-01T14:06:57.239Z,34.28
2022-08-01T14:10:05.059Z,35.50
2022-08-01T14:12:51.368Z,34.96
2022-08-01T14:15:39.779Z,34.10
2022-08-01T14:18:26.015Z,34.73
2022-08-01T14:21:12.410Z,32.94
2022-08-01T14:23:58.838Z,33.13
2022-08-01T14:26:45.099Z,33.90
2022-08-01T14:30:01.222Z,35.65
2022-08-01T14:32:44.027Z,34.02
2022-08-01T14:35:30.203Z,35.50
2022-08-01T14:38:36.613Z,35.29
2022-08-01T14:41:22.906Z,35.75
2022-08-01T14:44:09.998Z,36.31
2022-08-01T14:47:01.165Z,35.43
2022-08-01T14:49:48.262Z,37.21
2022-08-01T14:52:35.558Z,36.72
2022-08-01T14:55:24.604Z,36.87
2022-08-01T14:58:10.741Z,36.01
2022-08-01T15:00:59.177Z,35.42
2022-08-01T15:03:46.897Z,36.03
2022-08-01T15:06:33.097Z,36.35
2022-08-01T15:09:18.992Z,36.93
2022-08-01T15:12:05.812Z,37.62
2022-08-01T15:14:52.285Z,37.09
2022-08-01T15:17:38.664Z,36.54
2022-08-01T15:20:26.318Z,36.00
2022-08-01T15:23:12.844Z,34.13
2022-08-01T15:25:59.309Z,31.90
2022-08-01T15:28:45.622Z,32.17
2022-08-01T15:31:32.023Z,32.45
2022-08-01T15:34:18.429Z,31.72
2022-08-01T15:37:04.777Z,32.90
2022-08-01T15:39:51.447Z,33.03
2022-08-01T15:42:42.886Z,33.23
2022-08-01T15:48:39.981Z,32.16
2022-08-01T15:51:26.960Z,32.65
2022-08-01T15:54:14.861Z,32.91
2022-08-01T15:57:01.941Z,33.28
2022-08-01T15:59:48.194Z,33.10
2022-08-01T16:02:34.539Z,33.30
2022-08-01T16:05:20.845Z,33.64
2022-08-01T16:08:07.237Z,33.68
2022-08-01T16:10:53.505Z,32.84
2022-08-01T16:13:39.999Z,33.32
2022-08-01T16:16:26.294Z,34.08
2022-08-01T16:19:19.252Z,33.98
2022-08-01T16:22:06.143Z,34.74
2022-08-01T16:24:52.680Z,35.29
2022-08-01T16:27:39.290Z,34.17
2022-08-01T16:30:26.093Z,34.44
2022-08-01T16:33:20.573Z,33.28
2022-08-01T16:36:18.865Z,33.40
2022-08-01T16:39:07.729Z,33.62
2022-08-01T16:41:55.261Z,33.72
2022-08-01T16:44:51.781Z,33.60
2022-08-01T16:47:38.562Z,33.02
2022-08-01T16:50:28.135Z,32.92
2022-08-01T16:53:19.148Z,33.71
2022-08-01T16:56:05.551Z,33.11
2022-08-01T16:58:51.738Z,33.01
2022-08-01T17:02:01.365Z,33.52
2022-08-01T17:04:44.048Z,33.75
2022-08-01T17:07:30.702Z,33.45
2022-08-01T17:10:17.576Z,34.09
2022-08-01T17:13:04.891Z,33.64
2022-08-01T17:15:51.136Z,32.72
2022-08-01T17:18:38.720Z,33.55
2022-08-01T17:21:24.848Z,34.75
2022-08-01T17:24:11.608Z,37.14
2022-08-01T17:27:03.091Z,38.27
2022-08-01T17:29:49.560Z,38.71
2022-08-01T17:32:36.293Z,38.32
2022-08-01T17:35:23.119Z,39.14
2022-08-01T17:38:09.407Z,39.42
2022-08-01T17:40:55.746Z,41.37
2022-08-01T17:43:43.132Z,41.32
2022-08-01T17:46:30.444Z,42.09
2022-08-01T17:49:28.611Z,42.25
2022-08-01T17:52:23.171Z,43.40
2022-08-01T17:55:55.626Z,42.95
2022-08-01T17:58:48.794Z,43.04
2022-08-01T18:01:26.872Z,44.08
2022-08-01T18:04:13.378Z,43.72
2022-08-01T18:07:00.154Z,42.76
2022-08-01T18:09:46.690Z,43.01
2022-08-01T18:12:34.003Z,43.06
2022-08-01T18:15:24.544Z,44.14
2022-08-01T18:18:16.695Z,43.70
2022-08-01T18:21:03.233Z,43.49
2022-08-01T18:23:51.081Z,45.22
2022-08-01T18:26:38.082Z,44.38
2022-08-01T18:29:47.130Z,47.27
2022-08-01T18:32:31.391Z,49.16
2022-08-01T18:35:17.863Z,49.35
2022-08-01T18:38:06.270Z,47.38
2022-08-01T18:40:54.628Z,46.15
2022-08-01T18:43:41.403Z,47.03
2022-08-01T18:46:27.648Z,47.56
2022-08-01T18:49:14.266Z,46.43
2022-08-01T18:52:00.792Z,47.29
2022-08-01T18:54:47.166Z,46.19
2022-08-01T18:57:33.343Z,46.21
2022-08-01T19:00:19.696Z,45.54
2022-08-01T19:03:06.373Z,48.74
2022-08-01T19:05:52.887Z,47.52
2022-08-01T19:08:40.014Z,47.30
2022-08-01T19:15:23.727Z,46.60
2022-08-01T19:18:10.558Z,45.13
2022-08-01T19:20:56.739Z,45.86
2022-08-01T19:24:01.791Z,44.51
2022-08-01T19:26:59.547Z,44.50
2022-08-01T19:29:56.878Z,46.12
2022-08-01T19:32:44.513Z,46.58
2022-08-01T19:35:31.151Z,45.78
2022-08-01T19:38:18.508Z,47.27
2022-08-01T19:41:05.043Z,45.73
2022-08-01T19:43:51.483Z,47.27
2022-08-01T19:46:40.096Z,47.12
2022-08-01T19:49:26.528Z,47.94
2022-08-01T19:52:15.427Z,47.27
2022-08-01T19:55:03.183Z,46.38
2022-08-01T20:00:59.533Z,47.26
2022-08-01T20:03:51.085Z,47.93
2022-08-01T20:06:37.684Z,48.93
2022-08-01T20:09:26.558Z,49.26
2022-08-01T20:12:12.810Z,49.34
2022-08-01T20:14:59.227Z,51.28
2022-08-01T20:17:45.637Z,52.47
2022-08-01T20:20:33.389Z,52.59
2022-08-01T20:23:23.731Z,52.55
2022-08-01T20:26:11.454Z,49.95
2022-08-01T20:28:58.228Z,51.55
2022-08-01T20:31:50.144Z,52.81
2022-08-01T20:34:39.683Z,52.90
2022-08-01T20:38:04.185Z,53.30
2022-08-01T20:40:32.905Z,53.38
2022-08-01T20:43:21.023Z,53.59
2022-08-01T20:46:07.265Z,54.59
2022-08-01T20:48:55.595Z,54.22
2022-08-01T20:51:43.336Z,54.10
2022-08-01T20:54:29.704Z,52.63
2022-08-01T20:57:28.029Z,52.62
2022-08-01T21:00:15.135Z,53.24
2022-08-01T21:03:10.002Z,55.12
2022-08-01T21:06:02.642Z,55.34
2022-08-01T21:08:50.023Z,54.53
2022-08-01T21:11:39.208Z,54.80
2022-08-01T21:14:51.475Z,53.13
2022-08-01T21:17:55.983Z,52.92
2022-08-01T21:20:43.928Z,54.12
2022-08-01T21:23:53.213Z,52.36
2022-08-01T21:26:40.341Z,53.72
2022-08-01T21:29:27.068Z,53.64
2022-08-01T21:32:15.617Z,55.81
2022-08-01T21:35:04.985Z,56.74
2022-08-01T21:37:53.105Z,55.70
2022-08-01T21:40:39.765Z,55.98
2022-08-01T21:43:25.998Z,54.64
2022-08-01T21:46:12.465Z,54.53
2022-08-01T21:48:59.301Z,54.18
2022-08-01T21:51:54.552Z,54.77
2022-08-01T21:54:59.937Z,53.54
2022-08-01T21:58:19.209Z,53.33
2022-08-01T22:01:21.690Z,55.94
2022-08-01T22:04:11.731Z,57.82
2022-08-01T22:07:00.034Z,56.69
2022-08-01T22:09:49.852Z,59.60
2022-08-01T22:12:36.079Z,57.60
2022-08-01T22:15:25.491Z,59.01
2022-08-01T22:18:30.762Z,57.64
2022-08-01T22:21:17.550Z,55.17
2022-08-01T22:24:05.726Z,57.31
2022-08-01T22:26:53.151Z,57.31
2022-08-01T22:29:39.353Z,58.53
2022-08-01T22:32:34.002Z,58.65
2022-08-01T22:35:20.132Z,56.24
2022-08-01T22:38:06.298Z,55.66
2022-08-01T22:40:55.024Z,55.33
2022-08-01T22:44:04.469Z,54.31
2022-08-01T22:47:02.031Z,54.04
2022-08-01T22:50:01.560Z,54.58
2022-08-01T22:52:57.360Z,53.41
2022-08-01T22:55:58.643Z,54.42
2022-08-01T22:58:46.732Z,55.78
2022-08-01T23:18:56.032Z,63.50
2022-08-01T23:21:51.221Z,63.50
2022-08-01T23:24:41.671Z,62.52
2022-08-01T23:28:03.778Z,62.30
2022-08-01T23:31:11.522Z,60.07
2022-08-01T23:33:59.985Z,61.10
2022-08-01T23:36:48.798Z,60.20
2022-08-01T23:39:35.647Z,59.51
2022-08-01T23:42:23.707Z,59.78
2022-08-01T23:45:10.547Z,59.44
2022-08-01T23:47:57.677Z,62.01
2022-08-01T23:50:45.163Z,62.28
2022-08-01T23:53:33.997Z,63.07
2022-08-01T23:56:25.433Z,63.23
2022-08-01T23:59:16.269Z,64.23
